createdAt,value
2023-05-04T00:01:39.980Z,11.83
2023-05-04T00:04:44.884Z,10.53
2023-05-04T00:07:48.495Z,10.07
2023-05-04T00:10:52.063Z,15.73
2023-05-04T00:13:55.596Z,11.00
2023-05-04T00:16:59.063Z,9.60
2023-05-04T00:20:04.345Z,14.57
2023-05-04T00:23:08.018Z,11.20
2023-05-04T00:26:11.580Z,17.57
2023-05-04T00:29:15.026Z,13.10
2023-05-04T00:32:18.501Z,11.20
2023-05-04T00:35:23.381Z,11.57
2023-05-04T00:38:27.023Z,11.80
2023-05-04T00:41:30.688Z,12.97
2023-05-04T00:44:34.713Z,11.77
2023-05-04T00:47:38.369Z,15.07
2023-05-04T00:50:43.811Z,14.27
2023-05-04T00:53:47.518Z,13.50
2023-05-04T00:56:52.235Z,10.83
2023-05-04T00:59:56.109Z,12.23
2023-05-04T01:02:59.681Z,12.33
2023-05-04T01:06:18.684Z,14.30
2023-05-04T01:09:35.364Z,12.47
2023-05-04T01:12:45.806Z,13.27
2023-05-04T01:15:51.026Z,15.80
2023-05-04T01:18:54.488Z,11.63
2023-05-04T01:21:59.411Z,13.63
2023-05-04T01:25:03.349Z,12.23
2023-05-04T01:28:13.694Z,12.57
2023-05-04T01:31:24.013Z,12.27
2023-05-04T01:34:27.716Z,10.70
2023-05-04T01:37:32.819Z,11.53
2023-05-04T01:40:36.384Z,12.07
2023-05-04T01:43:39.933Z,15.93
2023-05-04T01:46:43.692Z,12.37
2023-05-04T01:49:47.300Z,12.97
2023-05-04T01:52:52.388Z,13.27
2023-05-04T01:55:55.872Z,11.83
2023-05-04T01:58:59.349Z,14.27
2023-05-04T02:02:03.162Z,10.63
2023-05-04T02:05:07.409Z,14.10
2023-05-04T02:08:12.264Z,13.37
2023-05-04T02:11:16.333Z,12.23
2023-05-04T02:14:19.868Z,9.40
2023-05-04T02:17:23.364Z,9.30
2023-05-04T02:20:26.976Z,11.40
2023-05-04T02:23:32.064Z,11.93
2023-05-04T02:26:36.315Z,12.30
2023-05-04T02:29:40.785Z,9.23
2023-05-04T02:32:44.410Z,10.47
2023-05-04T02:35:47.861Z,10.93
2023-05-04T02:38:52.764Z,12.70
2023-05-04T02:41:56.228Z,11.30
2023-05-04T02:44:59.720Z,12.93
2023-05-04T02:48:03.345Z,13.47
2023-05-04T02:51:07.549Z,13.03
2023-05-04T02:54:12.389Z,10.10
2023-05-04T02:57:15.893Z,14.83
2023-05-04T03:00:19.919Z,16.63
2023-05-04T03:03:23.549Z,11.00
2023-05-04T03:06:27.073Z,13.63
2023-05-04T03:09:32.085Z,10.73
2023-05-04T03:12:35.628Z,9.03
2023-05-04T03:15:39.279Z,9.53
2023-05-04T03:18:42.749Z,12.10
2023-05-04T03:21:46.377Z,8.83
2023-05-04T03:24:51.320Z,9.33
2023-05-04T03:27:54.960Z,12.47
2023-05-04T03:30:58.608Z,14.63
2023-05-04T03:34:02.129Z,7.20
2023-05-04T03:37:05.661Z,12.27
2023-05-04T03:40:11.970Z,7.27
2023-05-04T03:43:15.449Z,11.03
2023-05-04T03:46:19.048Z,16.73
2023-05-04T03:49:22.760Z,9.50
2023-05-04T03:52:26.429Z,10.00
2023-05-04T03:55:31.372Z,9.80
2023-05-04T03:58:34.854Z,10.43
2023-05-04T04:01:38.837Z,8.63
2023-05-04T04:04:42.802Z,6.73
2023-05-04T04:07:46.372Z,8.70
2023-05-04T04:10:51.461Z,8.13
2023-05-04T04:13:55.183Z,8.60
2023-05-04T04:16:58.634Z,10.50
2023-05-04T04:20:02.277Z,7.57
2023-05-04T04:23:06.026Z,7.27
2023-05-04T04:26:11.106Z,12.53
2023-05-04T04:29:25.699Z,7.23
2023-05-04T04:32:29.194Z,8.77
2023-05-04T04:35:33.521Z,9.67
2023-05-04T04:38:37.936Z,9.93
2023-05-04T04:41:42.768Z,11.53
2023-05-04T04:44:46.728Z,6.23
2023-05-04T04:47:50.443Z,11.97
2023-05-04T04:50:54.421Z,6.33
2023-05-04T04:53:58.068Z,8.67
2023-05-04T04:57:02.899Z,6.90
2023-05-04T05:00:09.982Z,12.07
2023-05-04T05:03:13.922Z,8.47
2023-05-04T05:06:17.652Z,10.90
2023-05-04T05:09:21.351Z,7.37
2023-05-04T05:12:26.229Z,7.50
2023-05-04T05:15:29.720Z,7.17
2023-05-04T05:18:36.832Z,10.17
2023-05-04T05:21:40.371Z,8.10
2023-05-04T05:24:44.032Z,7.30
2023-05-04T05:27:48.921Z,11.03
2023-05-04T05:30:52.845Z,9.97
2023-05-04T05:33:56.408Z,6.40
2023-05-04T05:37:00.226Z,13.53
2023-05-04T05:40:06.524Z,6.90
2023-05-04T05:43:11.775Z,8.70
2023-05-04T05:46:15.956Z,6.53
2023-05-04T05:49:19.828Z,5.60
2023-05-04T05:52:23.485Z,9.93
2023-05-04T05:55:27.116Z,7.13
2023-05-04T05:58:32.215Z,8.27
2023-05-04T06:01:35.719Z,9.03
2023-05-04T06:04:39.372Z,4.83
2023-05-04T06:07:42.958Z,10.43
2023-05-04T06:10:48.040Z,4.70
2023-05-04T06:13:52.992Z,6.73
2023-05-04T06:16:56.689Z,6.70
2023-05-04T06:20:00.790Z,3.80
2023-05-04T06:23:04.291Z,5.10
2023-05-04T06:26:07.995Z,6.03
2023-05-04T06:29:12.926Z,6.87
2023-05-04T06:32:16.770Z,6.00
2023-05-04T06:35:20.547Z,3.83
2023-05-04T06:38:24.148Z,9.00
2023-05-04T06:41:27.730Z,8.60
2023-05-04T06:44:35.766Z,5.10
2023-05-04T06:47:39.651Z,7.73
2023-05-04T06:50:43.181Z,3.40
2023-05-04T06:53:46.696Z,5.83
2023-05-04T06:56:50.796Z,5.83
2023-05-04T06:59:55.672Z,6.87
2023-05-04T07:02:59.346Z,2.40
2023-05-04T07:06:03.750Z,5.50
2023-05-04T07:09:08.387Z,4.00
2023-05-04T07:12:11.851Z,4.87
2023-05-04T07:15:34.722Z,6.80
2023-05-04T07:18:38.942Z,7.07
2023-05-04T07:21:42.818Z,5.57
2023-05-04T07:24:46.818Z,5.50
2023-05-04T07:27:50.491Z,6.50
2023-05-04T07:30:55.418Z,7.00
2023-05-04T07:33:59.165Z,4.40
2023-05-04T07:37:05.262Z,3.37
2023-05-04T07:40:10.484Z,8.77
2023-05-04T07:43:14.130Z,7.83
2023-05-04T07:46:19.140Z,6.70
2023-05-04T07:49:22.788Z,6.03
2023-05-04T07:52:26.354Z,3.70
2023-05-04T07:55:30.964Z,5.70
2023-05-04T07:58:34.453Z,4.03
2023-05-04T08:01:40.839Z,3.80
2023-05-04T08:04:45.432Z,5.90
2023-05-04T08:07:49.018Z,3.73
2023-05-04T08:10:52.813Z,3.63
2023-05-04T08:13:56.327Z,4.67
2023-05-04T08:17:01.308Z,8.80
2023-05-04T08:20:05.648Z,3.43
2023-05-04T08:23:09.200Z,4.63
2023-05-04T08:26:12.713Z,6.37
2023-05-04T08:29:17.817Z,4.77
2023-05-04T08:32:22.667Z,3.73
2023-05-04T08:35:27.909Z,5.03
2023-05-04T08:38:31.375Z,4.60
2023-05-04T08:41:36.337Z,13.67
2023-05-04T08:44:40.752Z,6.17
2023-05-04T08:47:47.008Z,2.37
2023-05-04T08:50:51.067Z,5.77
2023-05-04T08:53:56.457Z,4.93
2023-05-04T08:57:00.307Z,5.90
2023-05-04T09:00:05.747Z,5.47
2023-05-04T09:03:12.656Z,3.90
2023-05-04T09:06:16.689Z,4.63
2023-05-04T09:09:20.804Z,3.80
2023-05-04T09:12:24.441Z,4.83
2023-05-04T09:15:27.969Z,5.93
2023-05-04T09:18:40.606Z,4.80
2023-05-04T09:21:44.438Z,5.43
2023-05-04T09:24:47.951Z,6.47
2023-05-04T09:27:55.313Z,4.73
2023-05-04T09:31:02.709Z,6.63
2023-05-04T09:34:12.197Z,2.43
2023-05-04T09:37:15.750Z,6.67
2023-05-04T09:40:19.614Z,5.07
2023-05-04T09:43:23.565Z,5.43
2023-05-04T09:46:28.775Z,4.13
2023-05-04T09:49:35.205Z,5.13
2023-05-04T09:52:40.217Z,5.97
2023-05-04T09:55:47.396Z,8.43
2023-05-04T09:58:52.873Z,4.60
2023-05-04T10:01:57.375Z,15.30
2023-05-04T10:05:06.750Z,5.57
2023-05-04T10:08:10.864Z,4.20
2023-05-04T10:11:15.761Z,4.20
2023-05-04T10:14:19.849Z,4.93
2023-05-04T10:17:39.065Z,4.67
2023-05-04T10:21:21.696Z,5.07
2023-05-04T10:24:56.027Z,5.37
2023-05-04T10:28:16.613Z,2.40
2023-05-04T10:31:21.419Z,7.27
2023-05-04T10:34:27.580Z,6.27
2023-05-04T10:37:32.679Z,5.63
2023-05-04T10:40:38.514Z,3.10
2023-05-04T10:43:42.541Z,9.00
2023-05-04T10:46:46.751Z,3.20
2023-05-04T10:49:50.377Z,4.23
2023-05-04T10:52:56.362Z,4.47
2023-05-04T10:56:01.151Z,3.67
2023-05-04T10:59:11.027Z,4.87
2023-05-04T11:02:24.584Z,5.87
2023-05-04T11:05:28.389Z,4.77
2023-05-04T11:08:34.265Z,4.00
2023-05-04T11:11:38.640Z,5.10
2023-05-04T11:14:43.708Z,4.27
2023-05-04T11:17:47.900Z,7.17
2023-05-04T11:20:51.516Z,6.00
2023-05-04T11:24:02.446Z,2.87
2023-05-04T11:27:06.065Z,3.00
2023-05-04T11:30:12.185Z,6.73
2023-05-04T11:33:17.260Z,7.87
2023-05-04T11:36:22.509Z,2.90
2023-05-04T11:39:28.169Z,4.07
2023-05-04T11:42:33.671Z,3.23
2023-05-04T11:45:43.646Z,2.43
2023-05-04T11:48:48.215Z,3.73
2023-05-04T11:51:51.752Z,4.87
2023-05-04T11:54:59.947Z,7.10
2023-05-04T11:58:06.259Z,3.73
2023-05-04T12:01:09.994Z,4.97
2023-05-04T12:04:14.432Z,3.80
2023-05-04T12:07:18.149Z,5.43
2023-05-04T12:10:29.151Z,6.57
2023-05-04T12:13:32.696Z,4.50
2023-05-04T12:16:36.355Z,4.10
2023-05-04T12:19:49.287Z,3.90
2023-05-04T12:22:53.224Z,5.47
2023-05-04T12:25:58.635Z,3.63
2023-05-04T12:29:02.224Z,4.40
2023-05-04T12:32:06.210Z,1.57
2023-05-04T12:35:10.687Z,6.00
2023-05-04T12:38:14.357Z,4.60
2023-05-04T12:41:19.333Z,3.67
2023-05-04T12:44:22.808Z,3.77
2023-05-04T12:47:26.737Z,4.80
2023-05-04T12:50:30.505Z,3.17
2023-05-04T12:53:34.016Z,5.57
2023-05-04T12:56:39.701Z,2.53
2023-05-04T12:59:43.830Z,2.13
2023-05-04T13:02:47.462Z,3.07
2023-05-04T13:05:51.320Z,5.00
2023-05-04T13:08:54.928Z,2.73
2023-05-04T13:11:59.926Z,4.33
2023-05-04T13:15:03.504Z,3.83
2023-05-04T13:18:07.884Z,3.03
2023-05-04T13:21:11.613Z,4.90
2023-05-04T13:24:15.128Z,5.37
2023-05-04T13:27:20.232Z,4.20
2023-05-04T13:30:23.992Z,3.60
2023-05-04T13:33:29.666Z,2.53
2023-05-04T13:36:34.104Z,6.03
2023-05-04T13:39:42.499Z,3.80
2023-05-04T13:42:47.600Z,1.77
2023-05-04T13:45:51.546Z,2.70
2023-05-04T13:48:56.847Z,1.93
2023-05-04T13:52:00.955Z,3.57
2023-05-04T13:55:05.417Z,4.27
2023-05-04T13:58:10.605Z,5.90
2023-05-04T14:01:14.160Z,4.37
2023-05-04T14:04:17.758Z,5.17
2023-05-04T14:07:21.476Z,3.87
2023-05-04T14:10:25.323Z,2.97
2023-05-04T14:13:30.314Z,3.73
2023-05-04T14:16:35.481Z,1.30
2023-05-04T14:19:40.404Z,2.80
2023-05-04T14:22:44.261Z,5.03
2023-05-04T14:25:52.307Z,1.90
2023-05-04T14:28:57.248Z,1.87
2023-05-04T14:32:01.090Z,2.47
2023-05-04T14:35:08.431Z,3.27
2023-05-04T14:38:12.264Z,4.50
2023-05-04T14:41:15.755Z,4.37
2023-05-04T14:44:22.622Z,7.80
2023-05-04T14:47:27.566Z,5.57
2023-05-04T14:50:31.181Z,4.10
2023-05-04T14:53:36.835Z,3.73
2023-05-04T14:56:40.897Z,3.77
2023-05-04T14:59:45.873Z,4.47
2023-05-04T15:02:49.476Z,2.53
2023-05-04T15:05:53.219Z,4.87
2023-05-04T15:08:56.678Z,4.87
2023-05-04T15:12:00.353Z,3.27
2023-05-04T15:15:06.266Z,2.30
2023-05-04T15:18:09.993Z,3.83
2023-05-04T15:21:13.594Z,4.70
2023-05-04T15:24:17.954Z,2.10
2023-05-04T15:27:21.616Z,2.73
2023-05-04T15:30:26.984Z,1.60
2023-05-04T15:33:30.476Z,2.07
2023-05-04T15:36:34.410Z,3.37
2023-05-04T15:39:37.884Z,2.43
2023-05-04T15:42:41.376Z,4.37
2023-05-04T15:45:46.351Z,4.87
2023-05-04T15:48:50.014Z,3.27
2023-05-04T15:51:53.959Z,12.37
2023-05-04T15:54:57.424Z,8.93
2023-05-04T15:58:00.958Z,12.67
2023-05-04T16:01:10.031Z,4.53
2023-05-04T16:04:15.163Z,2.73
2023-05-04T16:07:18.829Z,1.50
2023-05-04T16:10:22.444Z,6.53
2023-05-04T16:13:26.184Z,5.90
2023-05-04T16:16:31.555Z,7.93
2023-05-04T16:19:35.086Z,6.73
2023-05-04T16:22:38.865Z,7.90
2023-05-04T16:25:42.660Z,4.87
2023-05-04T16:28:46.321Z,5.13
2023-05-04T16:31:51.247Z,5.90
2023-05-04T16:34:54.765Z,4.13
2023-05-04T16:37:58.717Z,5.30
2023-05-04T16:41:02.185Z,2.07
2023-05-04T16:44:05.949Z,2.03
2023-05-04T16:47:10.760Z,4.80
2023-05-04T16:50:15.427Z,2.67
2023-05-04T16:53:18.954Z,4.07
2023-05-04T16:56:23.079Z,5.03
2023-05-04T16:59:26.620Z,2.90
2023-05-04T17:02:31.821Z,2.77
2023-05-04T17:05:35.889Z,2.07
2023-05-04T17:08:39.502Z,4.57
2023-05-04T17:11:43.041Z,4.30
2023-05-04T17:14:47.302Z,2.67
2023-05-04T17:17:52.148Z,3.83
2023-05-04T17:20:56.011Z,5.43
2023-05-04T17:23:59.699Z,4.83
2023-05-04T17:27:03.312Z,2.80
2023-05-04T17:30:08.612Z,2.60
2023-05-04T17:33:13.954Z,4.23
2023-05-04T17:36:17.553Z,5.00
2023-05-04T17:39:21.194Z,4.03
2023-05-04T17:42:24.727Z,6.03
2023-05-04T17:45:33.921Z,3.47
2023-05-04T17:48:39.152Z,6.13
2023-05-04T17:51:42.667Z,5.67
2023-05-04T17:54:46.292Z,4.60
2023-05-04T17:57:49.976Z,4.67
2023-05-04T18:00:53.778Z,2.03
2023-05-04T18:03:58.699Z,8.67
2023-05-04T18:07:02.397Z,2.30
2023-05-04T18:10:07.333Z,4.27
2023-05-04T18:13:11.535Z,3.53
2023-05-04T18:16:15.199Z,1.53
2023-05-04T18:19:24.261Z,10.57
2023-05-04T18:22:27.995Z,11.87
2023-05-04T18:25:31.592Z,3.17
2023-05-04T18:28:35.217Z,4.20
2023-05-04T18:31:38.814Z,4.13
2023-05-04T18:34:47.741Z,5.80
2023-05-04T18:37:51.257Z,3.17
2023-05-04T18:40:55.452Z,3.27
2023-05-04T18:44:00.611Z,2.53
2023-05-04T18:47:04.399Z,5.93
2023-05-04T18:50:11.048Z,5.13
2023-05-04T18:53:14.696Z,3.47
2023-05-04T18:56:18.177Z,5.40
2023-05-04T18:59:22.020Z,3.97
2023-05-04T19:02:26.130Z,4.47
2023-05-04T19:05:30.996Z,2.50
2023-05-04T19:08:35.929Z,3.03
2023-05-04T19:11:39.464Z,4.07
2023-05-04T19:14:44.184Z,5.07
2023-05-04T19:17:47.757Z,5.43
2023-05-04T19:20:52.829Z,4.60
2023-05-04T19:23:56.645Z,5.70
2023-05-04T19:27:00.772Z,1.87
2023-05-04T19:30:05.190Z,4.33
2023-05-04T19:33:09.343Z,4.70
2023-05-04T19:36:14.536Z,4.33
2023-05-04T19:39:18.388Z,2.83
2023-05-04T19:42:22.080Z,3.03
2023-05-04T19:45:25.677Z,3.93
2023-05-04T19:48:29.222Z,8.23
2023-05-04T19:51:34.573Z,3.07
2023-05-04T19:54:41.330Z,3.57
2023-05-04T19:57:45.068Z,5.67
2023-05-04T20:00:49.009Z,6.70
2023-05-04T20:03:52.774Z,7.47
2023-05-04T20:06:57.634Z,4.63
2023-05-04T20:10:01.193Z,5.20
2023-05-04T20:13:06.027Z,7.10
2023-05-04T20:16:09.633Z,3.17
2023-05-04T20:19:13.373Z,4.87
2023-05-04T20:22:22.561Z,6.23
2023-05-04T20:25:27.348Z,5.23
2023-05-04T20:28:32.538Z,4.40
2023-05-04T20:31:36.167Z,7.20
2023-05-04T20:34:39.894Z,4.17
2023-05-04T20:37:44.746Z,6.73
2023-05-04T20:40:49.360Z,6.17
2023-05-04T20:43:53.316Z,3.63
2023-05-04T20:46:56.915Z,8.80
2023-05-04T20:50:00.449Z,4.50
2023-05-04T20:53:06.046Z,7.30
2023-05-04T20:56:09.550Z,8.83
2023-05-04T20:59:13.061Z,4.60
2023-05-04T21:02:16.806Z,5.57
2023-05-04T21:05:20.473Z,6.03
2023-05-04T21:08:25.586Z,3.97
2023-05-04T21:11:29.379Z,8.60
2023-05-04T21:14:32.818Z,5.07
2023-05-04T21:17:36.327Z,5.67
2023-05-04T21:20:41.529Z,5.10
2023-05-04T21:23:46.557Z,6.00
2023-05-04T21:26:49.993Z,6.80
2023-05-04T21:29:53.460Z,7.57
2023-05-04T21:32:57.251Z,7.27
2023-05-04T21:36:00.764Z,5.77
2023-05-04T21:39:05.748Z,6.63
2023-05-04T21:42:09.239Z,10.90
2023-05-04T21:45:13.187Z,6.37
2023-05-04T21:48:16.740Z,10.40
2023-05-04T21:51:20.960Z,11.37
2023-05-04T21:54:25.978Z,6.63
2023-05-04T21:57:32.730Z,6.37
2023-05-04T22:00:36.892Z,8.43
2023-05-04T22:03:40.365Z,8.67
2023-05-04T22:06:44.710Z,7.73
2023-05-04T22:09:49.943Z,9.23
2023-05-04T22:12:53.645Z,7.40
2023-05-04T22:15:57.249Z,6.90
2023-05-04T22:19:00.860Z,9.33
2023-05-04T22:22:04.512Z,6.17
2023-05-04T22:25:10.445Z,9.43
2023-05-04T22:28:13.924Z,8.03
2023-05-04T22:31:17.504Z,6.13
2023-05-04T22:34:21.223Z,6.13
2023-05-04T22:37:24.895Z,8.03
2023-05-04T22:40:29.835Z,5.83
2023-05-04T22:43:33.557Z,9.67
2023-05-04T22:46:37.277Z,9.63
2023-05-04T22:49:41.415Z,5.53
2023-05-04T22:52:44.915Z,6.13
2023-05-04T22:55:50.013Z,5.43
2023-05-04T22:58:53.500Z,8.07
2023-05-04T23:01:57.269Z,7.07
2023-05-04T23:05:00.779Z,7.67
2023-05-04T23:08:04.876Z,8.33
2023-05-04T23:11:09.788Z,6.77
2023-05-04T23:14:13.802Z,6.40
2023-05-04T23:17:17.678Z,7.33
2023-05-04T23:20:21.582Z,6.90
2023-05-04T23:23:25.102Z,8.47
2023-05-04T23:26:29.988Z,6.33
2023-05-04T23:29:33.675Z,7.70
2023-05-04T23:32:37.346Z,5.33
2023-05-04T23:35:40.804Z,7.33
2023-05-04T23:38:44.270Z,9.40
2023-05-04T23:41:49.288Z,7.37
2023-05-04T23:44:56.509Z,8.27
2023-05-04T23:48:00.007Z,9.60
2023-05-04T23:51:04.777Z,6.60
2023-05-04T23:54:08.330Z,5.80
2023-05-04T23:57:13.157Z,8.77
